createdAt,value
2018-07-19T00:00:58.804Z,0.00
2018-07-19T00:01:58.990Z,0.00
2018-07-19T00:02:59.163Z,0.00
2018-07-19T00:03:59.351Z,0.00
2018-07-19T00:04:59.523Z,0.00
2018-07-19T00:05:59.701Z,0.00
2018-07-19T00:06:59.919Z,0.00
2018-07-19T00:08:00.090Z,0.00
2018-07-19T00:09:00.232Z,0.00
2018-07-19T00:10:00.404Z,0.00
2018-07-19T00:11:00.587Z,0.00
2018-07-19T00:12:00.775Z,0.00
2018-07-19T00:13:00.958Z,0.00
2018-07-19T00:14:01.129Z,0.00
2018-07-19T00:15:01.334Z,0.00
2018-07-19T00:16:01.529Z,0.00
2018-07-19T00:17:01.725Z,0.00
2018-07-19T00:18:01.909Z,0.00
2018-07-19T00:19:02.110Z,0.00
2018-07-19T00:20:02.289Z,0.00
2018-07-19T00:21:02.476Z,0.00
2018-07-19T00:22:02.651Z,0.00
2018-07-19T00:23:02.828Z,0.00
2018-07-19T00:24:03.040Z,0.00
2018-07-19T00:25:03.208Z,0.00
2018-07-19T00:26:03.403Z,0.00
2018-07-19T00:27:03.638Z,0.00
2018-07-19T00:28:03.824Z,0.00
2018-07-19T00:29:04.035Z,0.00
2018-07-19T00:30:04.229Z,0.00
2018-07-19T00:31:04.414Z,0.00
2018-07-19T00:32:05.067Z,0.00
2018-07-19T00:33:04.833Z,0.00
2018-07-19T00:34:05.000Z,0.00
2018-07-19T00:35:05.167Z,0.00
2018-07-19T00:36:05.349Z,0.00
2018-07-19T00:37:05.528Z,0.00
2018-07-19T00:38:05.709Z,0.00
2018-07-19T00:39:05.901Z,0.00
2018-07-19T00:40:06.088Z,0.00
2018-07-19T00:41:06.270Z,0.00
2018-07-19T00:42:06.443Z,0.00
2018-07-19T00:43:06.629Z,0.00
2018-07-19T00:44:06.801Z,0.00
2018-07-19T00:45:06.993Z,0.00
2018-07-19T00:46:07.177Z,0.00
2018-07-19T00:47:07.347Z,0.00
2018-07-19T00:48:07.551Z,0.00
2018-07-19T00:49:07.719Z,0.00
2018-07-19T00:50:07.916Z,0.00
2018-07-19T00:51:08.109Z,0.00
2018-07-19T00:52:08.278Z,0.00
2018-07-19T00:53:08.477Z,0.00
2018-07-19T00:54:08.651Z,0.00
2018-07-19T00:55:08.834Z,0.00
2018-07-19T00:56:09.039Z,0.00
2018-07-19T00:57:09.190Z,0.00
2018-07-19T00:58:09.378Z,0.00
2018-07-19T00:59:09.580Z,0.00
2018-07-19T01:00:09.781Z,0.00
2018-07-19T01:01:09.970Z,0.00
2018-07-19T01:02:10.147Z,0.00
2018-07-19T01:03:10.345Z,0.00
2018-07-19T01:04:10.582Z,0.00
2018-07-19T01:05:10.757Z,0.00
2018-07-19T01:06:10.953Z,0.00
2018-07-19T01:07:11.125Z,0.00
2018-07-19T01:08:11.334Z,0.00
2018-07-19T01:09:11.522Z,0.00
2018-07-19T01:10:11.712Z,0.00
2018-07-19T01:11:11.870Z,0.00
2018-07-19T01:12:12.045Z,0.00
2018-07-19T01:13:12.218Z,0.00
2018-07-19T01:14:12.398Z,0.00
2018-07-19T01:15:12.566Z,0.00
2018-07-19T01:16:12.793Z,0.00
2018-07-19T01:17:12.960Z,0.00
2018-07-19T01:18:13.144Z,0.00
2018-07-19T01:19:13.317Z,0.00
2018-07-19T01:20:13.490Z,0.00
2018-07-19T01:21:13.691Z,0.00
2018-07-19T01:22:13.865Z,0.00
2018-07-19T01:23:14.039Z,0.00
2018-07-19T01:24:14.238Z,0.00
2018-07-19T01:25:14.444Z,0.00
2018-07-19T01:26:14.626Z,0.00
2018-07-19T01:27:14.803Z,0.00
2018-07-19T01:28:15.002Z,0.00
2018-07-19T01:29:15.199Z,0.00
2018-07-19T01:30:15.392Z,0.00
2018-07-19T01:31:15.571Z,0.00
2018-07-19T01:32:15.749Z,0.00
2018-07-19T01:33:15.938Z,0.00
2018-07-19T01:34:16.112Z,0.00
2018-07-19T01:35:16.280Z,0.00
2018-07-19T01:36:16.468Z,0.00
2018-07-19T01:37:16.676Z,0.00
2018-07-19T01:38:16.862Z,0.00
2018-07-19T01:39:17.063Z,0.00
2018-07-19T01:40:17.263Z,0.00
2018-07-19T01:41:17.420Z,0.00
2018-07-19T01:42:17.595Z,0.00
2018-07-19T01:43:17.777Z,0.00
2018-07-19T01:44:17.952Z,0.00
2018-07-19T01:45:18.133Z,0.00
2018-07-19T01:46:18.326Z,0.00
2018-07-19T01:47:18.522Z,0.00
2018-07-19T01:48:18.749Z,0.00
2018-07-19T01:49:18.943Z,0.00
2018-07-19T01:50:19.155Z,0.00
2018-07-19T01:51:19.337Z,0.00
2018-07-19T01:52:19.511Z,0.00
2018-07-19T01:53:19.717Z,0.00
2018-07-19T01:54:19.871Z,0.00
2018-07-19T01:55:20.062Z,0.00
2018-07-19T01:56:20.292Z,0.00
2018-07-19T01:57:20.522Z,0.00
2018-07-19T01:58:20.709Z,0.00
2018-07-19T01:59:20.889Z,0.00
2018-07-19T02:00:21.093Z,0.00
2018-07-19T02:01:21.283Z,0.00
2018-07-19T02:02:21.462Z,0.00
2018-07-19T02:03:21.644Z,0.00
2018-07-19T02:04:21.816Z,0.00
2018-07-19T02:05:21.987Z,0.00
2018-07-19T02:06:22.156Z,0.00
2018-07-19T02:07:22.329Z,0.00
2018-07-19T02:08:22.532Z,0.00
2018-07-19T02:09:22.717Z,0.00
2018-07-19T02:10:22.911Z,0.00
2018-07-19T02:11:23.085Z,0.00
2018-07-19T02:12:23.281Z,0.00
2018-07-19T02:13:23.463Z,0.00
2018-07-19T02:14:23.639Z,0.00
2018-07-19T02:15:23.816Z,0.00
2018-07-19T02:16:24.005Z,0.00
2018-07-19T02:17:24.173Z,0.00
2018-07-19T02:18:24.344Z,0.00
2018-07-19T02:19:24.531Z,0.00
2018-07-19T02:20:24.717Z,0.00
2018-07-19T02:21:24.892Z,0.00
2018-07-19T02:22:25.079Z,0.00
2018-07-19T02:23:25.267Z,0.00
2018-07-19T02:24:25.433Z,0.00
2018-07-19T02:25:25.618Z,0.00
2018-07-19T02:26:25.811Z,0.00
2018-07-19T02:27:25.991Z,0.00
2018-07-19T02:28:26.160Z,0.00
2018-07-19T02:29:26.350Z,0.00
2018-07-19T02:30:26.512Z,0.00
2018-07-19T02:31:26.680Z,0.00
2018-07-19T02:32:26.855Z,0.00
2018-07-19T02:33:27.038Z,0.00
2018-07-19T02:34:27.213Z,0.00
2018-07-19T02:35:27.401Z,0.00
2018-07-19T02:36:27.584Z,0.00
2018-07-19T02:37:27.748Z,0.00
2018-07-19T02:38:27.960Z,0.00
2018-07-19T02:39:28.138Z,0.00
2018-07-19T02:40:28.324Z,0.00
2018-07-19T02:41:28.511Z,0.00
2018-07-19T02:42:28.693Z,0.00
2018-07-19T02:43:28.871Z,0.00
2018-07-19T02:44:29.065Z,0.00
2018-07-19T02:45:29.229Z,0.00
2018-07-19T02:46:29.441Z,4.00
2018-07-19T02:47:29.635Z,4.00
2018-07-19T02:48:29.801Z,4.00
2018-07-19T02:49:29.998Z,4.00
2018-07-19T02:50:30.178Z,0.00
2018-07-19T02:51:30.362Z,4.00
2018-07-19T02:52:30.539Z,4.00
2018-07-19T02:53:30.711Z,4.00
2018-07-19T02:54:30.885Z,4.00
2018-07-19T02:55:31.071Z,4.00
2018-07-19T02:56:31.244Z,8.00
2018-07-19T02:57:31.413Z,8.00
2018-07-19T02:58:31.590Z,8.00
2018-07-19T02:59:31.761Z,8.00
2018-07-19T03:00:31.967Z,8.00
2018-07-19T03:01:32.165Z,12.00
2018-07-19T03:02:32.341Z,12.00
2018-07-19T03:03:32.519Z,16.00
2018-07-19T03:04:32.702Z,20.00
2018-07-19T03:05:32.900Z,20.00
2018-07-19T03:06:33.155Z,20.00
2018-07-19T03:07:33.288Z,24.00
2018-07-19T03:08:33.515Z,28.00
2018-07-19T03:09:33.703Z,36.00
2018-07-19T03:10:33.890Z,36.00
2018-07-19T03:11:34.069Z,44.00
2018-07-19T03:12:34.250Z,48.00
2018-07-19T03:13:34.435Z,52.00
2018-07-19T03:14:34.616Z,60.00
2018-07-19T03:15:34.785Z,68.00
2018-07-19T03:16:34.972Z,72.00
2018-07-19T03:17:35.157Z,80.00
2018-07-19T03:18:35.342Z,92.00
2018-07-19T03:19:35.558Z,104.00
2018-07-19T03:20:35.789Z,112.00
2018-07-19T03:21:35.964Z,120.00
2018-07-19T03:22:36.137Z,136.00
2018-07-19T03:23:36.372Z,148.00
2018-07-19T03:24:36.545Z,164.00
2018-07-19T03:25:36.716Z,180.00
2018-07-19T03:26:36.913Z,196.00
2018-07-19T03:27:37.130Z,216.00
2018-07-19T03:28:37.324Z,232.00
2018-07-19T03:29:37.507Z,252.00
2018-07-19T03:30:37.701Z,276.00
2018-07-19T03:31:37.908Z,300.00
2018-07-19T03:32:38.034Z,324.00
2018-07-19T03:33:38.236Z,356.00
2018-07-19T03:34:38.409Z,384.00
2018-07-19T03:35:38.579Z,412.00
2018-07-19T03:36:38.764Z,444.00
2018-07-19T03:37:38.940Z,480.00
2018-07-19T03:38:39.169Z,516.00
2018-07-19T03:39:39.357Z,556.00
2018-07-19T03:40:39.552Z,592.00
2018-07-19T03:41:39.747Z,636.00
2018-07-19T03:42:39.904Z,680.00
2018-07-19T03:43:40.080Z,728.00
2018-07-19T03:44:40.265Z,776.00
2018-07-19T03:45:40.479Z,824.00
2018-07-19T03:46:40.650Z,884.00
2018-07-19T03:47:40.816Z,936.00
2018-07-19T03:48:41.030Z,992.00
2018-07-19T03:49:41.208Z,1052.00
2018-07-19T03:50:41.394Z,1112.00
2018-07-19T03:51:41.552Z,1172.00
2018-07-19T03:52:41.737Z,1236.00
2018-07-19T03:53:41.914Z,1300.00
2018-07-19T03:54:42.106Z,1364.00
2018-07-19T03:55:42.319Z,1428.00
2018-07-19T03:56:42.490Z,1500.00
2018-07-19T03:57:42.670Z,1568.00
2018-07-19T03:58:42.848Z,1640.00
2018-07-19T03:59:43.031Z,1712.00
2018-07-19T04:00:43.261Z,1780.00
2018-07-19T04:01:43.441Z,1856.00
2018-07-19T04:02:43.609Z,1936.00
2018-07-19T04:03:43.854Z,2012.00
2018-07-19T04:04:44.037Z,2092.00
2018-07-19T04:05:44.211Z,2184.00
2018-07-19T04:06:44.421Z,2264.00
2018-07-19T04:07:44.592Z,2372.00
2018-07-19T04:08:44.794Z,2448.00
2018-07-19T04:09:44.965Z,2500.00
2018-07-19T04:10:45.142Z,2608.00
2018-07-19T04:11:45.312Z,2696.00
2018-07-19T04:12:45.503Z,2772.00
2018-07-19T04:13:45.703Z,2884.00
2018-07-19T04:14:45.900Z,3100.00
2018-07-19T04:15:46.112Z,3292.00
2018-07-19T04:16:46.296Z,3240.00
2018-07-19T04:17:46.489Z,3356.00
2018-07-19T04:18:46.680Z,3596.00
2018-07-19T04:19:46.883Z,3564.00
2018-07-19T04:20:47.067Z,3528.00
2018-07-19T04:21:47.235Z,3668.00
2018-07-19T04:22:47.405Z,3820.00
2018-07-19T04:23:47.585Z,3864.00
2018-07-19T04:24:47.757Z,4008.00
2018-07-19T04:25:47.957Z,4012.00
2018-07-19T04:26:48.126Z,4096.00
2018-07-19T04:27:48.305Z,4148.00
2018-07-19T04:28:48.482Z,4280.00
2018-07-19T04:29:48.673Z,4400.00
2018-07-19T04:30:48.838Z,4480.00
2018-07-19T04:31:49.017Z,4576.00
2018-07-19T04:32:49.186Z,4712.00
2018-07-19T04:33:49.386Z,4816.00
2018-07-19T04:34:49.575Z,4928.00
2018-07-19T04:35:49.755Z,5088.00
2018-07-19T04:36:49.920Z,5204.00
2018-07-19T04:37:50.086Z,5308.00
2018-07-19T04:38:51.110Z,5432.00
2018-07-19T04:39:50.485Z,5544.00
2018-07-19T04:40:50.655Z,5668.00
2018-07-19T04:41:50.839Z,5828.00
2018-07-19T04:42:51.026Z,5964.00
2018-07-19T04:43:51.218Z,6112.00
2018-07-19T04:44:51.409Z,6284.00
2018-07-19T04:45:51.583Z,6476.00
2018-07-19T04:46:51.783Z,6648.00
2018-07-19T04:47:51.955Z,6864.00
2018-07-19T04:48:52.167Z,7068.00
2018-07-19T04:49:52.374Z,7536.00
2018-07-19T04:50:52.560Z,10316.00
2018-07-19T04:51:52.736Z,16800.00
2018-07-19T04:52:52.910Z,24640.00
2018-07-19T04:53:53.134Z,33312.00
2018-07-19T04:54:53.328Z,35040.00
2018-07-19T04:55:53.508Z,34080.00
2018-07-19T04:56:53.695Z,33792.00
2018-07-19T04:57:53.878Z,34528.00
2018-07-19T04:58:54.058Z,35584.00
2018-07-19T04:59:54.233Z,37760.00
2018-07-19T05:00:54.404Z,39264.00
2018-07-19T05:01:54.789Z,38144.00
2018-07-19T05:02:54.795Z,39680.00
2018-07-19T05:03:54.966Z,39872.00
2018-07-19T05:04:55.209Z,39616.00
2018-07-19T05:05:55.395Z,41152.00
2018-07-19T05:06:55.576Z,42496.00
2018-07-19T05:07:55.767Z,40704.00
2018-07-19T05:08:55.955Z,38208.00
2018-07-19T05:09:56.136Z,41184.00
2018-07-19T05:10:56.316Z,43616.00
2018-07-19T05:11:56.487Z,42944.00
2018-07-19T05:12:56.700Z,43552.00
2018-07-19T05:13:56.915Z,43104.00
2018-07-19T05:14:57.117Z,43168.00
2018-07-19T05:15:57.310Z,46240.00
2018-07-19T05:16:57.501Z,49760.00
2018-07-19T05:17:57.671Z,49632.00
2018-07-19T05:18:57.868Z,49888.00
2018-07-19T05:19:58.057Z,50336.00
2018-07-19T05:20:58.237Z,50176.00
2018-07-19T05:21:58.416Z,49664.00
2018-07-19T05:22:58.607Z,47488.00
2018-07-19T05:23:58.824Z,39744.00
2018-07-19T05:24:59.013Z,33472.00
2018-07-19T05:25:59.193Z,33216.00
2018-07-19T05:26:59.416Z,36096.00
2018-07-19T05:27:59.603Z,39904.00
2018-07-19T05:28:59.785Z,40768.00
2018-07-19T05:29:59.963Z,39712.00
2018-07-19T05:31:00.166Z,39104.00
2018-07-19T05:32:00.349Z,44416.00
2018-07-19T05:33:00.559Z,47296.00
2018-07-19T05:34:00.752Z,50240.00
2018-07-19T05:35:00.948Z,53440.00
2018-07-19T05:36:01.124Z,55328.00
2018-07-19T05:37:01.301Z,57280.00
2018-07-19T05:38:01.519Z,53568.00
2018-07-19T05:39:01.701Z,51872.00
2018-07-19T05:40:01.898Z,52416.00
2018-07-19T05:41:02.104Z,58880.00
2018-07-19T05:42:02.345Z,63424.00
2018-07-19T05:43:02.466Z,63712.00
2018-07-19T05:44:02.660Z,65248.00
2018-07-19T05:45:02.845Z,63296.00
2018-07-19T05:46:03.020Z,63616.00
2018-07-19T05:47:03.226Z,62912.00
2018-07-19T05:48:03.438Z,58912.00
2018-07-19T05:49:03.621Z,61856.00
2018-07-19T05:50:03.814Z,67040.00
2018-07-19T05:51:04.009Z,66976.00
2018-07-19T05:52:04.202Z,69792.00
2018-07-19T05:53:04.402Z,71136.00
2018-07-19T05:54:04.595Z,73792.00
2018-07-19T05:55:04.818Z,69184.00
2018-07-19T05:56:05.036Z,64096.00
2018-07-19T05:57:05.213Z,61056.00
2018-07-19T05:58:05.431Z,61664.00
2018-07-19T05:59:05.628Z,59904.00
2018-07-19T06:00:05.825Z,60096.00
2018-07-19T06:01:06.018Z,62688.00
2018-07-19T06:02:06.220Z,65280.00
2018-07-19T06:03:06.414Z,68416.00
2018-07-19T06:04:06.611Z,71712.00
2018-07-19T06:05:06.809Z,72320.00
2018-07-19T06:06:07.017Z,76256.00
2018-07-19T06:07:07.243Z,78272.00
2018-07-19T06:08:07.426Z,80992.00
2018-07-19T06:09:07.617Z,80832.00
2018-07-19T06:10:07.816Z,81600.00
2018-07-19T06:11:08.011Z,80096.00
2018-07-19T06:12:08.202Z,81792.00
2018-07-19T06:13:08.414Z,83776.00
2018-07-19T06:14:08.588Z,82336.00
2018-07-19T06:15:08.780Z,81440.00
2018-07-19T06:16:08.977Z,80480.00
2018-07-19T06:17:09.183Z,77824.00
2018-07-19T06:18:09.380Z,75648.00
2018-07-19T06:19:09.571Z,75840.00
2018-07-19T06:20:09.775Z,75136.00
2018-07-19T06:21:09.983Z,64992.00
2018-07-19T06:22:10.142Z,65632.00
2018-07-19T06:23:10.349Z,65888.00
2018-07-19T06:24:10.542Z,64544.00
2018-07-19T06:25:10.738Z,62208.00
2018-07-19T06:26:10.930Z,59328.00
2018-07-19T06:27:11.125Z,57760.00
2018-07-19T06:28:11.326Z,66016.00
2018-07-19T06:29:11.529Z,72352.00
2018-07-19T06:30:11.719Z,77728.00
2018-07-19T06:31:11.905Z,84352.00
2018-07-19T06:32:12.095Z,83616.00
2018-07-19T06:33:12.301Z,85312.00
2018-07-19T06:34:12.505Z,85216.00
2018-07-19T06:35:12.692Z,87872.00
2018-07-19T06:36:12.903Z,86368.00
2018-07-19T06:37:13.112Z,86432.00
2018-07-19T06:38:13.289Z,81984.00
2018-07-19T06:39:13.486Z,77440.00
2018-07-19T06:40:13.683Z,74816.00
2018-07-19T06:41:13.931Z,70240.00
2018-07-19T06:42:14.072Z,69760.00
2018-07-19T06:43:14.275Z,73056.00
2018-07-19T06:44:14.478Z,76288.00
2018-07-19T06:45:14.700Z,78304.00
2018-07-19T06:46:14.895Z,76096.00
2018-07-19T06:47:15.110Z,74432.00
2018-07-19T06:48:15.280Z,72864.00
2018-07-19T06:49:15.485Z,68320.00
2018-07-19T06:50:15.683Z,70752.00
2018-07-19T06:51:15.881Z,76512.00
2018-07-19T06:52:16.084Z,80896.00
2018-07-19T06:53:16.275Z,79200.00
2018-07-19T06:54:16.467Z,79872.00
2018-07-19T06:55:16.677Z,79040.00
2018-07-19T06:56:16.895Z,69568.00
2018-07-19T06:57:17.150Z,64256.00
2018-07-19T06:58:17.304Z,56864.00
2018-07-19T06:59:17.495Z,49728.00
2018-07-19T07:00:17.689Z,49152.00
2018-07-19T07:01:17.877Z,53120.00
2018-07-19T07:02:18.093Z,62400.00
2018-07-19T07:03:18.301Z,72320.00
2018-07-19T07:04:18.495Z,76224.00
2018-07-19T07:05:18.659Z,80960.00
2018-07-19T07:06:18.848Z,82880.00
2018-07-19T07:07:19.048Z,78816.00
2018-07-19T07:08:19.238Z,80704.00
2018-07-19T07:09:19.442Z,83296.00
2018-07-19T07:10:19.640Z,84480.00
2018-07-19T07:11:19.840Z,84480.00
2018-07-19T07:12:20.038Z,85312.00
2018-07-19T07:13:20.240Z,85088.00
2018-07-19T07:14:20.437Z,89024.00
2018-07-19T07:15:20.634Z,89888.00
2018-07-19T07:16:20.836Z,89184.00
2018-07-19T07:17:21.031Z,88896.00
2018-07-19T07:18:21.225Z,89024.00
2018-07-19T07:19:21.423Z,88768.00
2018-07-19T07:20:21.620Z,85888.00
2018-07-19T07:21:21.861Z,87040.00
2018-07-19T07:22:22.027Z,92064.00
2018-07-19T07:23:22.227Z,89792.00
2018-07-19T07:24:22.408Z,83904.00
2018-07-19T07:25:22.617Z,82848.00
2018-07-19T07:26:22.834Z,88224.00
2018-07-19T07:27:23.037Z,92384.00
2018-07-19T07:28:23.288Z,88896.00
2018-07-19T07:29:23.410Z,83904.00
2018-07-19T07:30:23.613Z,83168.00
2018-07-19T07:31:23.811Z,85120.00
2018-07-19T07:32:24.009Z,87776.00
2018-07-19T07:33:24.212Z,90560.00
2018-07-19T07:34:24.409Z,88928.00
2018-07-19T07:35:24.611Z,90592.00
2018-07-19T07:37:25.049Z,91424.00
2018-07-19T07:38:25.247Z,87584.00
2018-07-19T07:39:25.455Z,85696.00
2018-07-19T07:40:25.647Z,87360.00
2018-07-19T07:41:25.840Z,91968.00
2018-07-19T07:42:26.021Z,94752.00
2018-07-19T07:43:26.210Z,95712.00
2018-07-19T07:44:26.400Z,93856.00
2018-07-19T07:45:26.609Z,92576.00
2018-07-19T07:46:26.807Z,91328.00
2018-07-19T07:47:27.014Z,93024.00
2018-07-19T07:48:30.180Z,95360.00
2018-07-19T07:49:27.421Z,96064.00
2018-07-19T07:50:27.632Z,94944.00
2018-07-19T07:51:27.818Z,97536.00
2018-07-19T07:52:28.018Z,97408.00
2018-07-19T07:53:34.348Z,95040.00
2018-07-19T07:56:22.926Z,95104.00
2018-07-19T07:57:23.106Z,96704.00
2018-07-19T07:58:23.805Z,95584.00
2018-07-19T07:59:23.500Z,89536.00
2018-07-19T08:00:23.653Z,86848.00
2018-07-19T08:01:23.780Z,89024.00
2018-07-19T08:02:23.962Z,90208.00
2018-07-19T08:03:24.122Z,91936.00
2018-07-19T08:04:24.292Z,94208.00
2018-07-19T08:05:24.531Z,93312.00
2018-07-19T08:06:24.722Z,88384.00
2018-07-19T08:07:24.903Z,85760.00
2018-07-19T08:08:25.083Z,83744.00
2018-07-19T08:09:25.246Z,82720.00
2018-07-19T08:10:25.421Z,21600.00
2018-07-19T08:11:25.588Z,71488.00
2018-07-19T08:12:25.759Z,47584.00
2018-07-19T08:13:25.935Z,30528.00
2018-07-19T08:14:26.106Z,28928.00
2018-07-19T08:15:26.274Z,31232.00
2018-07-19T08:16:26.449Z,31648.00
2018-07-19T08:17:26.621Z,28416.00
2018-07-19T08:18:26.796Z,25984.00
2018-07-19T08:19:26.969Z,24288.00
2018-07-19T08:20:27.151Z,23104.00
2018-07-19T08:21:27.360Z,22176.00
2018-07-19T08:22:27.537Z,21312.00
2018-07-19T08:23:27.715Z,21216.00
2018-07-19T08:24:27.891Z,21024.00
2018-07-19T08:25:28.067Z,20512.00
2018-07-19T08:26:28.243Z,20096.00
2018-07-19T08:27:28.413Z,19456.00
2018-07-19T08:28:28.601Z,19072.00
2018-07-19T08:29:28.767Z,18240.00
2018-07-19T08:30:28.923Z,17184.00
2018-07-19T08:31:29.114Z,16864.00
2018-07-19T08:32:29.291Z,16832.00
2018-07-19T08:33:29.458Z,16800.00
2018-07-19T08:34:29.625Z,16960.00
2018-07-19T08:35:29.797Z,17152.00
2018-07-19T08:36:29.974Z,16736.00
2018-07-19T08:37:30.146Z,17664.00
2018-07-19T08:38:30.315Z,17440.00
2018-07-19T08:39:30.498Z,17056.00
2018-07-19T08:40:30.667Z,13676.00
2018-07-19T08:41:30.834Z,17120.00
2018-07-19T08:42:30.996Z,17376.00
2018-07-19T08:43:31.169Z,18496.00
2018-07-19T08:44:31.343Z,16416.00
2018-07-19T08:45:31.515Z,16096.00
2018-07-19T08:46:31.688Z,8576.00
2018-07-19T08:47:31.864Z,11552.00
2018-07-19T08:48:32.040Z,9372.00
2018-07-19T08:49:32.210Z,8128.00
2018-07-19T08:50:32.388Z,8668.00
2018-07-19T08:51:32.603Z,7928.00
2018-07-19T08:52:32.845Z,8204.00
2018-07-19T08:53:32.926Z,7808.00
2018-07-19T08:54:33.099Z,7340.00
2018-07-19T08:55:33.269Z,6988.00
2018-07-19T08:56:33.462Z,12456.00
2018-07-19T08:57:33.616Z,7008.00
2018-07-19T08:58:33.783Z,9348.00
2018-07-19T08:59:33.942Z,7728.00
2018-07-19T09:00:34.112Z,7888.00
2018-07-19T09:01:34.280Z,10344.00
2018-07-19T09:02:34.452Z,7260.00
2018-07-19T09:03:34.628Z,7800.00
2018-07-19T09:04:34.798Z,12064.00
2018-07-19T09:05:34.993Z,25344.00
2018-07-19T09:06:35.165Z,14052.00
2018-07-19T09:07:35.331Z,15432.00
2018-07-19T09:08:35.536Z,8020.00
2018-07-19T09:09:35.679Z,9732.00
2018-07-19T09:10:35.843Z,8700.00
2018-07-19T09:11:36.031Z,9160.00
2018-07-19T09:12:36.212Z,7288.00
2018-07-19T09:13:36.378Z,6956.00
2018-07-19T09:14:36.535Z,30880.00
2018-07-19T09:15:36.714Z,7560.00
2018-07-19T09:16:36.883Z,10580.00
2018-07-19T09:17:37.065Z,18880.00
2018-07-19T09:18:37.233Z,9556.00
2018-07-19T09:19:37.448Z,4544.00
2018-07-19T09:20:37.573Z,6092.00
2018-07-19T09:21:37.736Z,9696.00
2018-07-19T09:22:37.906Z,11088.00
2018-07-19T09:23:38.076Z,10180.00
2018-07-19T09:24:38.248Z,11288.00
2018-07-19T09:25:38.415Z,11940.00
2018-07-19T09:26:38.616Z,10328.00
2018-07-19T09:27:38.752Z,7512.00
2018-07-19T09:28:39.850Z,7764.00
2018-07-19T09:29:39.137Z,6824.00
2018-07-19T09:30:39.327Z,6772.00
2018-07-19T09:31:39.581Z,7220.00
2018-07-19T09:32:40.464Z,6588.00
2018-07-19T09:33:40.952Z,6064.00
2018-07-19T09:34:41.971Z,9848.00
2018-07-19T09:35:40.405Z,7708.00
2018-07-19T09:36:40.666Z,8072.00
2018-07-19T09:37:41.350Z,6580.00
2018-07-19T09:38:40.930Z,5988.00
2018-07-19T09:39:41.106Z,6140.00
2018-07-19T09:40:41.247Z,5712.00
2018-07-19T09:41:41.407Z,5596.00
2018-07-19T09:42:41.564Z,5404.00
2018-07-19T09:43:41.739Z,5232.00
2018-07-19T09:44:41.912Z,5208.00
2018-07-19T09:45:42.070Z,5304.00
2018-07-19T09:46:42.225Z,5368.00
2018-07-19T09:47:42.397Z,5248.00
2018-07-19T09:48:42.570Z,5216.00
2018-07-19T09:49:42.724Z,5448.00
2018-07-19T09:50:42.893Z,5436.00
2018-07-19T09:51:43.054Z,5272.00
2018-07-19T09:52:43.219Z,5520.00
2018-07-19T09:53:43.385Z,5108.00
2018-07-19T09:54:43.587Z,5076.00
2018-07-19T09:55:43.692Z,5164.00
2018-07-19T09:56:43.850Z,4724.00
2018-07-19T09:57:44.011Z,5024.00
2018-07-19T09:58:44.197Z,4912.00
2018-07-19T09:59:44.406Z,4984.00
2018-07-19T10:00:44.561Z,4920.00
2018-07-19T10:01:44.734Z,4908.00
2018-07-19T10:02:44.917Z,4792.00
2018-07-19T10:03:45.051Z,4888.00
2018-07-19T10:04:45.218Z,5480.00
2018-07-19T10:05:45.409Z,4688.00
2018-07-19T10:06:45.534Z,4704.00
2018-07-19T10:07:45.729Z,4668.00
2018-07-19T10:08:45.862Z,4568.00
2018-07-19T10:09:46.038Z,4572.00
2018-07-19T10:10:46.201Z,4648.00
2018-07-19T10:11:46.383Z,4600.00
2018-07-19T10:12:46.535Z,4576.00
2018-07-19T10:13:46.733Z,4512.00
2018-07-19T10:14:46.879Z,4748.00
2018-07-19T10:15:47.042Z,4612.00
2018-07-19T10:16:47.196Z,4420.00
2018-07-19T10:17:47.374Z,4368.00
2018-07-19T10:18:47.547Z,4356.00
2018-07-19T10:19:47.714Z,4384.00
2018-07-19T10:20:47.890Z,4560.00
2018-07-19T10:21:48.055Z,4588.00
2018-07-19T10:22:48.269Z,4252.00
2018-07-19T10:23:48.442Z,4308.00
2018-07-19T10:24:48.604Z,4308.00
2018-07-19T10:25:48.808Z,4240.00
2018-07-19T10:26:49.006Z,4324.00
2018-07-19T10:27:49.163Z,4292.00
2018-07-19T10:28:49.328Z,4220.00
2018-07-19T10:29:49.518Z,4192.00
2018-07-19T10:30:49.667Z,4852.00
2018-07-19T10:31:49.931Z,4208.00
2018-07-19T10:32:50.082Z,4188.00
2018-07-19T10:33:50.231Z,4132.00
2018-07-19T10:34:50.410Z,4148.00
2018-07-19T10:35:50.595Z,4080.00
2018-07-19T10:36:50.774Z,4088.00
2018-07-19T10:37:50.932Z,4052.00
2018-07-19T10:38:51.107Z,4040.00
2018-07-19T10:39:51.262Z,4068.00
2018-07-19T10:40:51.423Z,4032.00
2018-07-19T10:41:51.581Z,4008.00
2018-07-19T10:42:51.749Z,4024.00
2018-07-19T10:43:51.914Z,3952.00
2018-07-19T10:44:52.082Z,3944.00
2018-07-19T10:45:52.241Z,3948.00
2018-07-19T10:46:52.396Z,4016.00
2018-07-19T10:47:52.630Z,3968.00
2018-07-19T10:48:52.793Z,3912.00
2018-07-19T10:49:52.967Z,3904.00
2018-07-19T10:50:53.124Z,3904.00
2018-07-19T10:51:53.348Z,3872.00
2018-07-19T10:52:53.465Z,3880.00
2018-07-19T10:53:53.641Z,3856.00
2018-07-19T10:54:54.021Z,3840.00
2018-07-19T10:55:54.106Z,3844.00
2018-07-19T10:56:54.162Z,3828.00
2018-07-19T10:57:54.369Z,3800.00
2018-07-19T10:58:54.531Z,3828.00
2018-07-19T10:59:54.702Z,3784.00
2018-07-19T11:00:54.879Z,3812.00
2018-07-19T11:01:55.053Z,3764.00
2018-07-19T11:02:55.337Z,3816.00
2018-07-19T11:03:55.391Z,3684.00
2018-07-19T11:04:55.573Z,3744.00
2018-07-19T11:05:55.737Z,3668.00
2018-07-19T11:06:55.911Z,3724.00
2018-07-19T11:07:56.079Z,3688.00
2018-07-19T11:08:56.236Z,4012.00
2018-07-19T11:09:56.505Z,4396.00
2018-07-19T11:10:56.566Z,3772.00
2018-07-19T11:11:56.796Z,3800.00
2018-07-19T11:12:56.963Z,3792.00
2018-07-19T11:13:57.135Z,3656.00
2018-07-19T11:14:57.351Z,3660.00
2018-07-19T11:15:57.524Z,3616.00
2018-07-19T11:16:57.689Z,3600.00
2018-07-19T11:17:57.858Z,3592.00
2018-07-19T11:18:58.027Z,3600.00
2018-07-19T11:19:58.195Z,3600.00
2018-07-19T11:20:58.366Z,3612.00
2018-07-19T11:21:58.524Z,3556.00
2018-07-19T11:22:58.689Z,3536.00
2018-07-19T11:23:58.838Z,3656.00
2018-07-19T11:24:59.015Z,3588.00
2018-07-19T11:25:59.211Z,3788.00
2018-07-19T11:26:59.327Z,3624.00
2018-07-19T11:27:59.611Z,3528.00
2018-07-19T11:28:59.720Z,3496.00
2018-07-19T11:29:59.948Z,3456.00
2018-07-19T11:31:00.135Z,3524.00
2018-07-19T11:32:00.313Z,3484.00
2018-07-19T11:33:00.471Z,3424.00
2018-07-19T11:34:00.581Z,3476.00
2018-07-19T11:35:00.857Z,3700.00
2018-07-19T11:36:01.025Z,3412.00
2018-07-19T11:37:01.189Z,3508.00
2018-07-19T11:38:01.357Z,3472.00
2018-07-19T11:39:01.546Z,3492.00
2018-07-19T11:40:01.736Z,3504.00
2018-07-19T11:41:01.989Z,3396.00
2018-07-19T11:42:02.165Z,3752.00
2018-07-19T11:43:02.311Z,3384.00
2018-07-19T11:44:02.484Z,3392.00
2018-07-19T11:45:02.664Z,3368.00
2018-07-19T11:46:02.834Z,3448.00
2018-07-19T11:47:03.001Z,3628.00
2018-07-19T11:48:03.897Z,3340.00
2018-07-19T11:49:03.463Z,3352.00
2018-07-19T11:50:03.633Z,3372.00
2018-07-19T11:51:03.793Z,3336.00
2018-07-19T11:52:04.018Z,3376.00
2018-07-19T11:53:04.177Z,3320.00
2018-07-19T11:54:04.341Z,3356.00
2018-07-19T11:55:04.500Z,3364.00
2018-07-19T11:56:04.681Z,3288.00
2018-07-19T11:57:04.842Z,3616.00
2018-07-19T11:58:04.993Z,3288.00
2018-07-19T11:59:05.156Z,3268.00
2018-07-19T12:00:05.324Z,3392.00
2018-07-19T12:01:05.491Z,3264.00
2018-07-19T12:02:05.643Z,3260.00
2018-07-19T12:03:05.806Z,3444.00
2018-07-19T12:04:05.963Z,3264.00
2018-07-19T12:05:06.142Z,3340.00
2018-07-19T12:06:06.304Z,3340.00
2018-07-19T12:07:06.568Z,3284.00
2018-07-19T12:08:06.729Z,3244.00
2018-07-19T12:09:06.889Z,3300.00
2018-07-19T12:10:07.052Z,3236.00
2018-07-19T12:11:07.203Z,3244.00
2018-07-19T12:12:07.365Z,3324.00
2018-07-19T12:13:07.545Z,3280.00
2018-07-19T12:14:07.714Z,3252.00
2018-07-19T12:15:07.873Z,3156.00
2018-07-19T12:16:08.044Z,3184.00
2018-07-19T12:17:08.212Z,3192.00
2018-07-19T12:18:08.377Z,3288.00
2018-07-19T12:19:08.540Z,3188.00
2018-07-19T12:20:08.718Z,3252.00
2018-07-19T12:21:08.868Z,3128.00
2018-07-19T12:22:09.055Z,3120.00